Time;durP1;ratioP1;P1;durP2;ratioP2;P2;SDS_P1;SDS_P2;PMS_P1;PMS_P2;Temp;Humidity;BMP_temperature;BMP_pressure;BME280_temperature;BME280_humidity;BME280_pressure;Samples;Min_cycle;Max_cycle;Signal;HPM_P1;HPM_P2
2022/01/19 00:00:05;;;;;;;0.73;0.73;;;1.30;99.90;;;;;;5124481;27;20582;-59
2022/01/19 00:02:45;;;;;;;0.70;0.70;;;1.40;99.90;;;;;;5145689;27;20538;-59
2022/01/19 00:05:25;;;;;;;0.70;0.70;;;1.50;99.90;;;;;;5081894;28;21017;-59
2022/01/19 00:08:05;;;;;;;1.00;1.00;;;1.50;99.90;;;;;;5104371;27;20681;-59
2022/01/19 00:10:45;;;;;;;1.20;1.10;;;1.50;99.90;;;;;;5124759;27;20549;-59
2022/01/19 00:13:24;;;;;;;1.10;1.10;;;1.50;99.90;;;;;;5084425;27;20536;-59
2022/01/19 00:16:05;;;;;;;1.35;1.27;;;1.40;99.90;;;;;;5140768;27;20681;-59
2022/01/19 00:18:44;;;;;;;2.42;2.22;;;1.40;99.90;;;;;;5069876;28;20694;-59
2022/01/19 00:21:23;;;;;;;2.72;2.20;;;1.40;99.90;;;;;;5124211;27;20699;-59
2022/01/19 00:24:04;;;;;;;3.15;2.53;;;1.40;99.90;;;;;;5116002;27;20673;-59
2022/01/19 00:26:43;;;;;;;2.22;1.92;;;1.40;99.90;;;;;;5104568;27;21028;-60
2022/01/19 00:29:23;;;;;;;1.95;1.20;;;1.40;99.90;;;;;;5084838;27;21001;-59
2022/01/19 00:32:03;;;;;;;1.00;1.00;;;1.30;99.90;;;;;;5125871;27;20660;-59
2022/01/19 00:34:43;;;;;;;1.00;1.00;;;1.40;99.90;;;;;;5100746;27;20558;-59
2022/01/19 00:37:23;;;;;;;1.17;1.08;;;1.30;99.90;;;;;;5099764;27;20561;-59
2022/01/19 00:40:02;;;;;;;1.63;1.25;;;1.30;99.90;;;;;;5084846;28;20699;-59
2022/01/19 00:42:43;;;;;;;1.17;1.08;;;1.30;99.90;;;;;;5145149;27;20890;-59
2022/01/19 00:45:22;;;;;;;1.00;1.00;;;1.30;99.90;;;;;;5104622;27;20678;-59
2022/01/19 00:48:02;;;;;;;1.17;1.08;;;1.30;99.90;;;;;;5084002;27;20555;-59
2022/01/19 00:50:41;;;;;;;1.30;1.20;;;1.40;99.90;;;;;;5105029;27;20669;-58
2022/01/19 00:53:21;;;;;;;1.00;1.00;;;1.40;99.90;;;;;;5084551;28;20675;-60
2022/01/19 00:56:01;;;;;;;0.80;0.80;;;1.40;99.90;;;;;;5124755;27;20544;-59
2022/01/19 00:58:41;;;;;;;0.93;0.93;;;1.40;99.90;;;;;;5125353;27;21252;-59
2022/01/19 01:01:21;;;;;;;1.10;1.10;;;1.40;99.90;;;;;;5125776;27;20560;-59
2022/01/19 01:04:01;;;;;;;0.80;0.80;;;1.50;99.90;;;;;;5083933;27;20664;-59
2022/01/19 01:06:41;;;;;;;0.90;0.85;;;1.50;99.90;;;;;;5124291;27;20904;-59
2022/01/19 01:09:21;;;;;;;0.80;0.80;;;1.50;99.90;;;;;;5104917;27;21198;-59
2022/01/19 01:12:02;;;;;;;0.90;0.90;;;1.40;99.90;;;;;;5084608;27;21101;-59
2022/01/19 01:20:39;;;;;;;0.80;0.80;;;1.40;99.90;;;;;;5084255;27;20572;-59
2022/01/19 01:23:20;;;;;;;1.13;1.13;;;1.40;99.90;;;;;;5146161;27;20659;-59
2022/01/19 01:26:00;;;;;;;1.55;1.45;;;1.40;99.90;;;;;;5083965;27;20835;-58
2022/01/19 01:28:39;;;;;;;0.90;0.90;;;1.40;99.90;;;;;;5104941;27;20600;-59
2022/01/19 01:31:20;;;;;;;1.00;1.00;;;1.40;99.90;;;;;;5105217;27;21013;-59
2022/01/19 01:33:59;;;;;;;1.27;1.27;;;1.40;99.90;;;;;;5083624;27;20543;-60
2022/01/19 01:36:38;;;;;;;1.38;1.38;;;1.40;99.90;;;;;;5083798;28;20668;-59
2022/01/19 01:39:18;;;;;;;1.40;1.30;;;1.40;99.90;;;;;;5084283;27;20556;-60
2022/01/19 01:41:58;;;;;;;2.03;1.92;;;1.40;99.90;;;;;;5084796;28;20671;-59
2022/01/19 01:44:43;;;;;;;0.90;0.90;;;1.30;99.90;;;;;;5083909;27;20948;-59
2022/01/19 01:47:23;;;;;;;1.10;1.10;;;1.40;99.90;;;;;;5084012;28;20664;-59
2022/01/19 01:56:16;;;;;;;1.17;1.10;;;1.30;99.90;;;;;;5145448;27;20554;-59
2022/01/19 01:58:55;;;;;;;1.02;1.02;;;1.30;99.90;;;;;;5084284;27;20573;-57
2022/01/19 02:01:35;;;;;;;1.45;1.35;;;1.30;99.90;;;;;;5105729;27;20530;-59
2022/01/19 02:04:15;;;;;;;1.13;1.10;;;1.30;99.90;;;;;;5104652;27;20682;-59
2022/01/19 02:07:16;;;;;;;1.17;1.17;;;1.30;99.90;;;;;;5079599;27;20564;-59
2022/01/19 02:09:59;;;;;;;0.85;0.85;;;1.30;99.90;;;;;;5083455;28;20543;-59
2022/01/19 02:15:56;;;;;;;0.90;0.90;;;1.20;99.90;;;;;;5084635;27;20903;-59
2022/01/19 02:21:45;;;;;;;0.77;0.77;;;1.20;99.90;;;;;;5105377;27;20672;-59
2022/01/19 02:24:29;;;;;;;0.88;0.77;;;1.20;99.90;;;;;;5145682;27;20665;-59
2022/01/19 02:27:14;;;;;;;1.10;1.00;;;1.20;99.90;;;;;;5104431;27;20653;-59
2022/01/19 02:30:30;;;;;;;1.13;1.10;;;1.20;99.90;;;;;;5084888;27;21148;-59
2022/01/19 02:42:02;;;;;;;0.80;0.80;;;1.10;99.90;;;;;;5125917;27;20539;-59
2022/01/19 02:50:39;;;;;;;1.00;1.00;;;1.00;99.90;;;;;;5125116;27;20659;-59
2022/01/19 02:53:19;;;;;;;1.00;1.00;;;1.00;99.90;;;;;;5079946;28;20735;-59
2022/01/19 02:55:58;;;;;;;1.23;1.15;;;1.00;99.90;;;;;;5144383;27;20681;-59
2022/01/19 02:58:45;;;;;;;1.00;1.00;;;1.00;99.90;;;;;;5124789;27;20683;-59
2022/01/19 03:10:17;;;;;;;0.90;0.90;;;1.00;99.90;;;;;;5125070;27;20540;-59
2022/01/19 03:12:57;;;;;;;3.90;1.27;;;1.00;99.90;;;;;;5084673;28;20660;-59
2022/01/19 03:15:36;;;;;;;1.15;1.15;;;1.00;99.90;;;;;;5124902;27;20694;-59
2022/01/19 03:18:16;;;;;;;1.35;1.30;;;1.00;99.90;;;;;;5105075;27;21198;-59
2022/01/19 03:20:56;;;;;;;1.50;1.40;;;1.00;99.90;;;;;;5125102;27;21064;-59
2022/01/19 03:23:36;;;;;;;1.58;1.48;;;1.00;99.90;;;;;;5083987;27;20536;-59
2022/01/19 03:26:16;;;;;;;1.50;1.40;;;0.90;99.90;;;;;;5104757;27;20669;-59
2022/01/19 03:28:56;;;;;;;1.63;1.52;;;0.90;99.90;;;;;;5084555;28;20691;-59
2022/01/19 03:31:35;;;;;;;1.30;1.30;;;0.90;99.90;;;;;;5105018;27;21210;-59
2022/01/19 03:34:16;;;;;;;1.55;1.45;;;0.90;99.90;;;;;;5145520;27;20677;-59
2022/01/19 03:36:56;;;;;;;1.70;1.63;;;0.90;99.90;;;;;;5104616;27;20549;-59
2022/01/19 03:39:37;;;;;;;1.58;1.48;;;0.90;99.90;;;;;;5105164;27;20537;-59
2022/01/19 03:42:16;;;;;;;2.00;1.90;;;0.90;99.90;;;;;;5084681;28;20659;-59
2022/01/19 03:44:58;;;;;;;1.73;1.63;;;0.90;99.90;;;;;;5083911;28;20683;-59
2022/01/19 03:47:42;;;;;;;2.10;2.00;;;0.90;99.90;;;;;;5083943;27;20548;-59
2022/01/19 03:50:22;;;;;;;1.48;1.40;;;0.90;99.90;;;;;;5084493;27;21155;-59
2022/01/19 03:53:02;;;;;;;1.60;1.45;;;0.90;99.90;;;;;;5125220;27;20533;-59
2022/01/19 03:55:42;;;;;;;1.85;1.75;;;0.90;99.90;;;;;;5084953;27;20723;-60
2022/01/19 03:58:22;;;;;;;1.63;1.50;;;0.90;99.90;;;;;;5125541;27;21052;-59
2022/01/19 04:01:03;;;;;;;1.60;1.50;;;0.90;99.90;;;;;;5085340;28;20660;-59
2022/01/19 04:04:10;;;;;;;1.60;1.50;;;0.80;99.90;;;;;;5104828;27;20565;-59
2022/01/19 04:06:58;;;;;;;1.10;1.10;;;0.80;99.90;;;;;;5084554;27;20543;-59
2022/01/19 04:09:42;;;;;;;1.30;1.30;;;0.90;99.90;;;;;;5064554;28;20545;-59
2022/01/19 04:12:41;;;;;;;1.75;1.65;;;0.80;99.90;;;;;;5105206;27;20564;-59
2022/01/19 04:15:20;;;;;;;1.60;1.50;;;0.80;99.90;;;;;;5084094;27;20547;-59
2022/01/19 04:18:00;;;;;;;1.83;1.73;;;0.80;99.90;;;;;;5084013;27;21007;-59
2022/01/19 04:20:42;;;;;;;2.00;1.90;;;0.80;99.90;;;;;;5145697;27;20579;-59
2022/01/19 04:23:22;;;;;;;1.58;1.48;;;0.80;99.90;;;;;;5125193;27;20532;-59
2022/01/19 04:26:03;;;;;;;1.50;1.40;;;0.80;99.90;;;;;;5137311;27;20553;-59
2022/01/19 04:28:42;;;;;;;1.63;1.52;;;0.80;99.90;;;;;;5125498;27;20552;-59
2022/01/19 04:31:22;;;;;;;1.75;1.65;;;0.80;99.90;;;;;;5125697;27;21058;-59
2022/01/19 04:34:05;;;;;;;2.38;2.28;;;0.80;99.90;;;;;;5083231;28;21075;-59
2022/01/19 04:37:19;;;;;;;2.15;2.05;;;0.80;99.90;;;;;;5083306;27;20561;-60
2022/01/19 04:46:07;;;;;;;2.25;2.15;;;0.80;99.90;;;;;;5125378;27;20528;-60
2022/01/19 04:49:12;;;;;;;2.03;1.92;;;0.80;99.90;;;;;;5084388;27;20563;-59
2022/01/19 05:04:03;;;;;;;2.63;2.42;;;0.70;99.90;;;;;;5104000;27;20661;-59
2022/01/19 05:06:46;;;;;;;2.80;1.70;;;0.70;99.90;;;;;;5083557;28;20683;-59
2022/01/19 05:09:50;;;;;;;1.73;1.63;;;0.70;99.90;;;;;;5084577;28;20679;-60
2022/01/19 05:15:23;;;;;;;2.10;2.00;;;0.60;99.90;;;;;;5084489;27;20543;-59
2022/01/19 05:18:04;;;;;;;1.63;1.52;;;0.60;99.90;;;;;;5124734;27;20552;-59
2022/01/19 05:20:45;;;;;;;2.20;2.10;;;0.60;99.90;;;;;;5144749;27;20673;-59
2022/01/19 05:23:24;;;;;;;1.88;1.77;;;0.60;99.90;;;;;;5083523;28;20663;-59
2022/01/19 05:26:03;;;;;;;2.22;2.10;;;0.60;99.90;;;;;;5084271;28;20543;-59
2022/01/19 05:28:43;;;;;;;1.90;1.80;;;0.60;99.90;;;;;;5125394;27;20556;-59
2022/01/19 05:31:24;;;;;;;2.08;1.98;;;0.60;99.90;;;;;;5125223;27;20675;-59
2022/01/19 05:34:03;;;;;;;1.80;1.70;;;0.60;99.90;;;;;;5123387;27;20544;-60
2022/01/19 05:36:43;;;;;;;2.47;2.30;;;0.60;99.90;;;;;;5082538;27;20536;-59
2022/01/19 05:39:23;;;;;;;2.78;2.58;;;0.60;99.90;;;;;;5083306;28;21045;-59
2022/01/19 05:42:03;;;;;;;2.13;2.00;;;0.60;99.90;;;;;;5083781;28;20659;-60
2022/01/19 05:44:43;;;;;;;2.40;2.30;;;0.60;99.90;;;;;;5103550;27;20666;-60
2022/01/19 05:47:22;;;;;;;2.22;2.13;;;0.60;99.90;;;;;;5083827;28;20663;-59
2022/01/19 05:50:02;;;;;;;2.30;2.20;;;0.60;99.90;;;;;;5145853;27;20542;-59
2022/01/19 05:52:42;;;;;;;2.45;2.28;;;0.60;99.90;;;;;;5084825;28;21022;-59
2022/01/19 05:55:22;;;;;;;3.47;3.28;;;0.60;99.90;;;;;;5084399;27;20616;-60
2022/01/19 05:58:02;;;;;;;2.78;2.58;;;0.60;99.90;;;;;;5104114;27;20554;-60
2022/01/19 06:00:41;;;;;;;2.25;2.15;;;0.60;99.90;;;;;;5105246;27;20557;-60
2022/01/19 06:03:21;;;;;;;2.80;2.60;;;0.60;99.90;;;;;;5082880;27;20676;-60
2022/01/19 06:06:02;;;;;;;4.15;3.85;;;0.60;99.90;;;;;;5121902;27;20939;-60
2022/01/19 06:08:43;;;;;;;3.00;2.80;;;0.50;99.90;;;;;;5084470;28;21196;-59
2022/01/19 06:11:24;;;;;;;3.35;3.13;;;0.50;99.90;;;;;;5084928;27;20997;-60
2022/01/19 06:14:04;;;;;;;4.47;4.07;;;0.50;99.90;;;;;;5084288;27;21071;-59
2022/01/19 06:16:45;;;;;;;4.00;3.70;;;0.50;99.90;;;;;;5104663;27;20673;-59
2022/01/19 06:19:25;;;;;;;3.85;3.55;;;0.60;99.90;;;;;;5105000;27;21239;-60
2022/01/19 06:22:05;;;;;;;3.67;3.38;;;0.50;99.90;;;;;;5146637;27;20542;-59
2022/01/19 06:24:45;;;;;;;3.03;2.70;;;0.50;99.90;;;;;;5104520;27;20666;-59
2022/01/19 06:27:25;;;;;;;2.97;2.78;;;0.50;99.90;;;;;;5125036;27;20533;-60
2022/01/19 06:30:05;;;;;;;3.15;2.90;;;0.50;99.90;;;;;;5145937;27;20816;-60
2022/01/19 06:32:46;;;;;;;4.53;3.60;;;0.50;99.90;;;;;;5105062;27;20542;-59
2022/01/19 06:35:26;;;;;;;3.80;3.53;;;0.50;99.90;;;;;;5124185;27;20556;-60
2022/01/19 06:38:07;;;;;;;4.57;4.28;;;0.40;99.90;;;;;;5084111;28;20557;-60
2022/01/19 06:40:47;;;;;;;4.68;4.28;;;0.40;99.90;;;;;;5146059;27;20534;-60
2022/01/19 06:43:26;;;;;;;6.20;5.70;;;0.40;99.90;;;;;;5125026;27;20540;-60
2022/01/19 06:46:06;;;;;;;5.15;4.75;;;0.40;99.90;;;;;;5104671;27;20767;-59
2022/01/19 06:48:46;;;;;;;4.05;3.75;;;0.40;99.90;;;;;;5125375;27;20586;-59
2022/01/19 06:51:28;;;;;;;5.78;5.43;;;0.40;99.90;;;;;;5146443;27;20661;-59
2022/01/19 06:54:07;;;;;;;5.85;5.43;;;0.40;99.90;;;;;;5124616;27;20664;-60
2022/01/19 06:56:47;;;;;;;4.55;4.18;;;0.40;99.90;;;;;;5124825;27;21030;-60
2022/01/19 06:59:27;;;;;;;4.28;3.97;;;0.50;99.90;;;;;;5146191;27;20711;-59
2022/01/19 07:02:07;;;;;;;5.38;4.88;;;0.50;99.90;;;;;;5146225;27;21163;-59
2022/01/19 07:04:49;;;;;;;4.07;3.88;;;0.50;99.90;;;;;;5104447;27;20665;-59
2022/01/19 07:07:28;;;;;;;4.47;4.10;;;0.50;99.90;;;;;;5081283;28;21199;-60
2022/01/19 07:10:09;;;;;;;5.38;4.97;;;0.50;99.90;;;;;;5146432;27;20530;-60
2022/01/19 07:12:48;;;;;;;4.20;3.90;;;0.50;99.90;;;;;;5125682;27;20585;-60
2022/01/19 07:15:28;;;;;;;4.45;4.15;;;0.50;99.90;;;;;;5146080;27;20535;-59
2022/01/19 07:18:08;;;;;;;5.03;4.63;;;0.50;99.90;;;;;;5146077;27;21128;-60
2022/01/19 07:20:47;;;;;;;5.57;5.07;;;0.50;99.90;;;;;;5105314;27;20538;-60
2022/01/19 07:23:27;;;;;;;5.43;4.80;;;0.50;99.90;;;;;;5145760;27;20542;-59
2022/01/19 07:26:07;;;;;;;5.68;5.18;;;0.60;99.90;;;;;;5084137;28;20667;-60
2022/01/19 07:28:47;;;;;;;6.13;5.63;;;0.60;99.90;;;;;;5104949;27;20566;-60
2022/01/19 07:31:26;;;;;;;5.88;5.10;;;0.60;99.90;;;;;;5125647;27;20545;-59
2022/01/19 07:34:06;;;;;;;7.07;6.30;;;0.70;99.90;;;;;;5084137;28;20625;-59
2022/01/19 07:36:46;;;;;;;4.82;4.43;;;0.70;99.90;;;;;;5116076;27;20537;-59
2022/01/19 07:39:26;;;;;;;4.53;4.22;;;0.70;99.90;;;;;;5145870;27;20554;-59
2022/01/19 07:42:07;;;;;;;4.80;4.45;;;0.70;99.90;;;;;;5125330;27;20548;-59
2022/01/19 07:44:46;;;;;;;4.53;4.18;;;0.70;99.90;;;;;;5083798;28;20676;-60
2022/01/19 07:47:27;;;;;;;4.03;3.72;;;0.70;99.90;;;;;;5083832;27;20609;-59
2022/01/19 07:50:09;;;;;;;4.15;3.85;;;0.70;99.90;;;;;;5145610;27;20549;-59
2022/01/19 07:52:49;;;;;;;4.30;4.00;;;0.80;99.90;;;;;;5125670;27;20696;-60
2022/01/19 07:55:28;;;;;;;4.65;4.25;;;0.80;99.90;;;;;;5124810;27;20540;-60
2022/01/19 07:58:09;;;;;;;4.28;3.97;;;0.70;99.90;;;;;;5104012;27;20562;-60
2022/01/19 08:00:49;;;;;;;4.25;3.95;;;0.80;99.90;;;;;;5125249;27;21065;-59
2022/01/19 08:03:29;;;;;;;4.13;3.83;;;0.90;99.90;;;;;;5104526;27;20658;-60
2022/01/19 08:06:09;;;;;;;4.43;4.13;;;0.90;99.90;;;;;;5083880;28;20770;-60
2022/01/19 08:08:49;;;;;;;5.70;4.28;;;0.90;99.90;;;;;;5125358;27;20590;-59
2022/01/19 08:11:29;;;;;;;5.03;4.63;;;1.00;99.90;;;;;;5105117;27;20529;-59
2022/01/19 08:14:09;;;;;;;4.95;4.55;;;1.00;99.90;;;;;;5145943;27;20535;-59
2022/01/19 08:16:48;;;;;;;6.75;4.88;;;1.10;99.90;;;;;;5145441;27;20657;-59
2022/01/19 08:19:28;;;;;;;5.00;4.50;;;1.10;99.90;;;;;;5084627;27;21100;-59
2022/01/19 08:22:08;;;;;;;5.20;4.63;;;1.10;99.90;;;;;;5105185;27;20599;-60
2022/01/19 08:24:48;;;;;;;6.07;5.03;;;1.20;99.90;;;;;;5145478;27;20532;-60
2022/01/19 08:27:28;;;;;;;5.50;5.00;;;1.30;99.90;;;;;;5104330;27;21195;-59
2022/01/19 08:30:11;;;;;;;11.75;9.48;;;1.30;99.90;;;;;;5084035;27;20555;-59
2022/01/19 08:32:51;;;;;;;7.95;7.15;;;1.30;99.90;;;;;;5105495;27;20599;-59
2022/01/19 08:35:31;;;;;;;4.93;4.53;;;1.40;99.90;;;;;;5104067;27;20603;-59
2022/01/19 08:38:10;;;;;;;5.72;5.22;;;1.50;99.90;;;;;;5083954;27;20559;-60
2022/01/19 08:40:50;;;;;;;4.95;4.55;;;1.60;99.90;;;;;;5125515;27;20536;-60
2022/01/19 08:43:31;;;;;;;5.40;4.90;;;1.60;99.90;;;;;;5145824;27;20542;-59
2022/01/19 08:46:11;;;;;;;4.60;4.20;;;1.70;99.90;;;;;;5104642;27;20677;-60
2022/01/19 08:48:51;;;;;;;5.38;4.93;;;1.80;99.90;;;;;;5085088;28;20680;-60
2022/01/19 08:51:31;;;;;;;5.80;5.30;;;1.90;99.90;;;;;;5104964;27;20530;-60
2022/01/19 08:54:11;;;;;;;5.65;5.07;;;2.00;99.90;;;;;;5084115;28;20593;-60
2022/01/19 08:56:51;;;;;;;4.93;4.60;;;2.00;99.90;;;;;;5145826;27;20611;-60
2022/01/19 08:59:31;;;;;;;4.45;4.07;;;1.80;99.90;;;;;;5104844;27;20860;-59
2022/01/19 09:02:11;;;;;;;4.10;3.80;;;1.70;99.90;;;;;;5146000;27;20650;-59
2022/01/19 09:04:52;;;;;;;4.18;3.78;;;1.70;99.90;;;;;;5104630;27;20995;-60
2022/01/19 09:07:32;;;;;;;5.18;4.68;;;1.80;99.90;;;;;;5101156;27;20547;-60
2022/01/19 09:10:13;;;;;;;4.28;3.90;;;2.00;99.90;;;;;;5104603;27;20603;-59
2022/01/19 09:12:53;;;;;;;3.45;3.22;;;2.10;99.90;;;;;;5105206;27;21006;-60
2022/01/19 09:15:33;;;;;;;4.13;3.78;;;2.00;99.90;;;;;;5125163;27;20540;-60
2022/01/19 09:18:12;;;;;;;4.30;3.88;;;1.80;99.90;;;;;;5125221;27;20989;-59
2022/01/19 09:20:52;;;;;;;3.80;2.72;;;1.70;99.90;;;;;;5146030;27;20952;-59
2022/01/19 09:23:35;;;;;;;4.82;4.43;;;1.50;99.90;;;;;;5084239;28;20573;-58
2022/01/19 09:26:15;;;;;;;5.40;3.67;;;1.30;99.90;;;;;;5145457;27;20878;-60
2022/01/19 09:28:55;;;;;;;3.70;3.40;;;1.20;99.90;;;;;;5104849;27;20666;-60
2022/01/19 09:31:35;;;;;;;4.15;3.35;;;1.20;99.90;;;;;;5084905;28;20539;-59
2022/01/19 09:34:19;;;;;;;4.03;3.70;;;1.30;99.90;;;;;;5104705;27;20542;-59
2022/01/19 09:36:58;;;;;;;4.55;3.58;;;1.50;99.90;;;;;;5145480;27;20886;-59
2022/01/19 09:39:38;;;;;;;5.80;4.50;;;1.50;99.90;;;;;;5146204;27;20557;-58
2022/01/19 09:42:17;;;;;;;4.63;4.22;;;1.70;99.90;;;;;;5146719;27;20948;-59
2022/01/19 09:44:57;;;;;;;5.72;4.43;;;1.80;99.90;;;;;;5158723;27;20570;-59
2022/01/19 09:47:37;;;;;;;4.63;4.03;;;2.00;99.90;;;;;;5084026;28;20683;-59
2022/01/19 09:50:17;;;;;;;4.03;3.72;;;2.00;99.90;;;;;;5145872;27;20543;-59
2022/01/19 09:52:57;;;;;;;6.05;4.05;;;2.00;99.90;;;;;;5146335;27;20555;-59
2022/01/19 09:55:39;;;;;;;6.00;5.40;;;2.00;99.90;;;;;;5124689;27;20588;-60
2022/01/19 09:58:21;;;;;;;5.90;4.75;;;1.90;99.90;;;;;;5084557;27;20895;-60
2022/01/19 10:01:01;;;;;;;6.20;4.93;;;2.00;99.90;;;;;;5084604;27;21129;-59
2022/01/19 10:03:41;;;;;;;4.82;4.32;;;2.00;99.90;;;;;;5084094;28;20536;-59
2022/01/19 10:06:23;;;;;;;4.00;3.17;;;2.00;99.90;;;;;;5084278;28;20868;-60
2022/01/19 10:09:02;;;;;;;3.03;2.83;;;2.00;99.90;;;;;;5084580;27;20551;-59
2022/01/19 10:18:07;;;;;;;3.58;3.28;;;2.50;99.90;;;;;;5104665;27;20853;-59
2022/01/19 10:20:49;;;;;;;3.85;3.22;;;2.70;99.90;;;;;;5084829;27;20550;-60
2022/01/19 10:23:36;;;;;;;5.10;3.45;;;3.00;99.90;;;;;;5146274;27;21211;-59
2022/01/19 10:26:24;;;;;;;4.32;3.38;;;3.30;99.90;;;;;;5145809;27;20611;-59
2022/01/19 10:29:07;;;;;;;3.15;2.85;;;3.60;99.90;;;;;;5084721;27;20624;-60
2022/01/19 10:31:49;;;;;;;3.55;3.25;;;3.90;99.90;;;;;;5105363;27;21209;-59
2022/01/19 10:34:28;;;;;;;3.92;3.63;;;4.10;99.90;;;;;;5145873;27;20563;-59
2022/01/19 10:37:08;;;;;;;4.18;3.80;;;4.20;99.90;;;;;;5124793;27;20565;-59
2022/01/19 10:39:54;;;;;;;3.63;3.33;;;4.20;99.90;;;;;;5105179;27;21017;-59
2022/01/19 10:42:34;;;;;;;6.20;4.25;;;4.30;99.90;;;;;;5105305;27;20661;-59
2022/01/19 10:45:16;;;;;;;5.53;3.08;;;4.30;99.90;;;;;;5084246;27;20543;-59
2022/01/19 10:47:57;;;;;;;3.40;2.90;;;4.40;99.90;;;;;;5084498;28;20664;-60
2022/01/19 10:50:35;;;;;;;4.30;3.58;;;4.40;99.90;;;;;;5084825;28;20668;-59
2022/01/19 10:53:16;;;;;;;4.85;3.83;;;4.20;99.90;;;;;;5105763;27;21046;-59
2022/01/19 10:55:55;;;;;;;5.80;3.90;;;4.00;99.90;;;;;;5083909;27;20609;-59
2022/01/19 10:58:54;;;;;;;7.70;4.57;;;3.90;99.90;;;;;;5105690;27;20553;-59
2022/01/19 11:01:37;;;;;;;4.15;3.30;;;3.90;99.90;;;;;;5147041;27;21015;-60
2022/01/19 11:04:37;;;;;;;3.28;2.72;;;3.80;99.90;;;;;;5146075;27;20888;-59
2022/01/19 11:07:19;;;;;;;3.97;2.90;;;4.10;99.90;;;;;;5102832;27;20599;-59
2022/01/19 11:10:07;;;;;;;3.75;3.28;;;4.40;99.90;;;;;;5104854;27;20555;-59
2022/01/19 11:12:48;;;;;;;3.40;2.80;;;4.50;99.90;;;;;;5104793;27;20546;-59
2022/01/19 11:15:30;;;;;;;3.03;2.75;;;4.70;99.90;;;;;;5145783;27;20542;-59
2022/01/19 11:18:10;;;;;;;5.07;2.90;;;4.70;99.90;;;;;;5154093;27;20541;-59
2022/01/19 11:20:51;;;;;;;3.20;2.97;;;4.60;99.90;;;;;;5104525;27;20596;-59
2022/01/19 11:23:43;;;;;;;3.55;3.25;;;4.70;99.90;;;;;;5125758;27;20541;-59
2022/01/19 11:26:29;;;;;;;6.60;3.25;;;4.60;99.90;;;;;;5104369;27;20666;-59
2022/01/19 11:29:18;;;;;;;4.63;2.88;;;4.70;99.90;;;;;;5162562;27;20552;-59
2022/01/19 11:31:59;;;;;;;3.70;2.72;;;4.70;99.90;;;;;;5085117;27;20565;-59
2022/01/19 11:34:46;;;;;;;3.78;2.72;;;4.80;99.90;;;;;;5104898;27;20553;-59
2022/01/19 11:37:37;;;;;;;3.92;3.03;;;5.00;99.90;;;;;;5081795;28;20664;-58
2022/01/19 11:40:19;;;;;;;4.65;3.35;;;5.00;99.90;;;;;;5146305;27;20538;-59
2022/01/19 11:43:21;;;;;;;5.38;3.60;;;5.10;99.90;;;;;;5146315;27;20557;-59
2022/01/19 11:46:03;;;;;;;4.35;3.50;;;4.90;99.90;;;;;;5145694;27;20539;-59
2022/01/19 11:48:45;;;;;;;4.07;3.78;;;4.80;99.90;;;;;;5159237;27;20667;-59
2022/01/19 11:51:30;;;;;;;7.03;4.00;;;4.80;99.90;;;;;;5085246;28;20605;-59
2022/01/19 11:54:13;;;;;;;5.18;4.18;;;4.80;99.90;;;;;;5103915;27;20545;-59
2022/01/19 11:57:08;;;;;;;3.90;3.53;;;4.90;99.90;;;;;;5104423;27;20546;-59
2022/01/19 12:00:23;;;;;;;5.03;4.35;;;5.00;99.90;;;;;;5084941;27;20547;-59
2022/01/19 12:03:18;;;;;;;8.85;3.60;;;5.00;99.90;;;;;;5105125;27;20694;-59
2022/01/19 12:05:58;;;;;;;4.22;3.83;;;5.00;99.90;;;;;;5120134;27;20541;-59
2022/01/19 12:08:39;;;;;;;3.92;3.53;;;4.90;99.90;;;;;;5125091;27;20987;-59
2022/01/19 12:11:22;;;;;;;4.95;4.07;;;4.90;99.90;;;;;;5104988;27;20619;-59
2022/01/19 12:14:11;;;;;;;6.45;4.70;;;4.80;99.90;;;;;;5124650;27;20585;-60
2022/01/19 12:17:00;;;;;;;6.38;4.30;;;4.60;99.90;;;;;;5084015;27;21149;-59
2022/01/19 12:19:42;;;;;;;6.70;5.30;;;4.40;99.90;;;;;;5104895;27;21070;-59
2022/01/19 12:22:24;;;;;;;8.18;5.72;;;4.30;99.90;;;;;;5084477;27;20559;-59
2022/01/19 12:25:08;;;;;;;5.03;4.50;;;4.20;99.90;;;;;;5143506;27;21027;-59
2022/01/19 12:27:51;;;;;;;6.43;5.10;;;3.90;99.90;;;;;;5124362;27;20556;-59
2022/01/19 12:30:31;;;;;;;4.97;4.47;;;3.80;99.90;;;;;;5104799;27;20549;-59
2022/01/19 12:33:10;;;;;;;6.82;5.05;;;3.80;99.90;;;;;;5125457;27;20671;-59
2022/01/19 12:35:50;;;;;;;5.63;5.00;;;3.80;99.90;;;;;;5103857;27;20541;-59
2022/01/19 12:38:33;;;;;;;6.38;4.80;;;3.80;99.90;;;;;;5084592;27;20592;-59
2022/01/19 12:41:13;;;;;;;5.22;4.30;;;3.70;99.90;;;;;;5146640;27;20526;-59
2022/01/19 12:43:53;;;;;;;5.72;4.40;;;3.70;99.90;;;;;;5084175;27;20547;-60
2022/01/19 12:46:39;;;;;;;5.85;4.18;;;3.80;99.90;;;;;;5083629;28;20684;-59
2022/01/19 12:49:28;;;;;;;7.03;4.75;;;3.80;99.90;;;;;;5066339;27;20599;-58
2022/01/19 12:52:16;;;;;;;7.85;5.00;;;3.80;99.90;;;;;;5145672;27;20543;-59
2022/01/19 12:55:00;;;;;;;9.63;4.20;;;3.80;99.90;;;;;;5082477;28;20667;-60
2022/01/19 12:57:39;;;;;;;7.45;4.70;;;3.70;99.90;;;;;;5102321;27;20673;-60
2022/01/19 13:00:22;;;;;;;11.38;4.65;;;3.50;99.90;;;;;;5123681;27;20548;-59
2022/01/19 13:03:13;;;;;;;6.13;4.47;;;3.40;99.90;;;;;;5083283;27;20551;-59
2022/01/19 13:05:58;;;;;;;7.35;4.75;;;3.30;99.90;;;;;;5102916;27;20681;-59
2022/01/19 13:08:48;;;;;;;5.82;4.18;;;3.20;99.90;;;;;;5077467;27;20571;-59
2022/01/19 13:11:36;;;;;;;4.90;4.18;;;3.10;99.90;;;;;;5124237;27;20695;-60
2022/01/19 13:14:15;;;;;;;3.55;3.25;;;2.90;99.90;;;;;;5102371;27;20654;-59
2022/01/19 13:16:56;;;;;;;4.82;3.72;;;2.80;99.90;;;;;;5102798;27;20634;-59
2022/01/19 13:19:35;;;;;;;3.70;3.28;;;2.70;99.90;;;;;;5144014;27;20685;-59
2022/01/19 13:22:15;;;;;;;5.97;4.25;;;2.70;99.90;;;;;;5123707;27;21096;-59
2022/01/19 13:24:59;;;;;;;3.80;3.50;;;2.70;99.90;;;;;;5123423;27;20548;-60
2022/01/19 13:27:44;;;;;;;5.30;3.92;;;2.70;99.90;;;;;;5119734;27;20663;-59
2022/01/19 13:30:25;;;;;;;4.00;3.70;;;2.80;99.90;;;;;;5103350;27;20545;-59
2022/01/19 13:33:12;;;;;;;4.03;3.70;;;2.80;99.90;;;;;;5103317;27;20579;-60
2022/01/19 13:36:00;;;;;;;4.68;4.15;;;2.70;99.90;;;;;;5061518;28;20700;-60
2022/01/19 13:38:39;;;;;;;4.78;4.38;;;2.80;99.90;;;;;;5121380;27;20536;-57
2022/01/19 13:41:19;;;;;;;5.55;4.85;;;3.00;99.90;;;;;;5123671;27;20544;-59
2022/01/19 13:44:07;;;;;;;5.30;4.82;;;3.00;99.90;;;;;;5123756;27;20543;-60
2022/01/19 13:46:47;;;;;;;5.40;4.50;;;3.00;99.90;;;;;;5103134;27;20561;-59
2022/01/19 13:49:26;;;;;;;5.97;4.15;;;3.00;99.90;;;;;;5144440;27;20566;-59
2022/01/19 13:52:07;;;;;;;6.40;5.90;;;3.10;99.90;;;;;;5103864;27;20963;-59
2022/01/19 13:54:46;;;;;;;4.70;4.28;;;3.10;99.90;;;;;;5102883;27;21074;-59
2022/01/19 13:57:30;;;;;;;5.00;4.60;;;3.10;99.90;;;;;;5080929;27;20974;-59
2022/01/19 14:00:15;;;;;;;5.10;4.60;;;3.10;99.90;;;;;;5145083;27;20999;-59
2022/01/19 14:02:59;;;;;;;5.72;5.22;;;3.00;99.90;;;;;;5084906;28;20676;-59
2022/01/19 14:05:46;;;;;;;6.10;5.60;;;3.00;99.90;;;;;;5103602;27;20681;-59
2022/01/19 14:08:33;;;;;;;7.88;7.18;;;2.90;99.90;;;;;;5124887;27;20561;-60
2022/01/19 14:11:22;;;;;;;7.75;7.05;;;2.80;99.90;;;;;;5116979;27;20540;-59
2022/01/19 14:14:03;;;;;;;5.97;5.47;;;2.80;99.90;;;;;;5145527;27;21241;-60
2022/01/19 14:16:47;;;;;;;6.35;5.75;;;2.70;99.90;;;;;;5106096;27;20661;-59
2022/01/19 14:19:27;;;;;;;7.60;7.00;;;2.60;99.90;;;;;;5147883;27;20662;-60
2022/01/19 14:22:10;;;;;;;8.43;7.57;;;2.50;99.90;;;;;;5085784;28;20605;-59
2022/01/19 14:24:54;;;;;;;8.77;8.05;;;2.50;99.90;;;;;;5084287;28;20698;-59
2022/01/19 14:27:40;;;;;;;7.70;7.00;;;2.40;99.90;;;;;;5078874;28;20694;-59
2022/01/19 14:30:28;;;;;;;7.38;6.55;;;2.40;99.90;;;;;;5154971;27;21206;-59
2022/01/19 14:33:10;;;;;;;8.00;7.20;;;2.30;99.90;;;;;;5105487;27;20682;-59
2022/01/19 14:35:51;;;;;;;7.63;7.03;;;2.20;99.90;;;;;;5122046;27;21065;-59
2022/01/19 14:38:36;;;;;;;8.57;7.80;;;2.20;99.90;;;;;;5085874;28;20592;-59
2022/01/19 14:41:18;;;;;;;7.50;7.00;;;2.10;99.90;;;;;;5105947;27;20530;-59
2022/01/19 14:44:03;;;;;;;7.95;7.28;;;2.10;99.90;;;;;;5146448;27;21009;-59
2022/01/19 14:46:54;;;;;;;8.02;7.32;;;2.10;99.90;;;;;;5085358;27;20664;-59
2022/01/19 14:49:36;;;;;;;7.78;7.13;;;2.00;99.90;;;;;;5084770;28;20679;-59
2022/01/19 14:52:15;;;;;;;8.45;7.18;;;1.90;99.90;;;;;;5085551;27;20531;-59
2022/01/19 14:54:55;;;;;;;8.80;8.05;;;1.80;99.90;;;;;;5120954;27;20620;-59
2022/01/19 14:57:35;;;;;;;7.97;7.28;;;1.70;99.90;;;;;;5083180;27;20909;-59
2022/01/19 15:00:16;;;;;;;8.55;7.05;;;1.60;99.90;;;;;;5105717;27;20550;-59
2022/01/19 15:02:59;;;;;;;9.90;9.20;;;1.60;99.90;;;;;;5085163;28;20672;-59
2022/01/19 15:05:41;;;;;;;9.40;8.48;;;1.60;99.90;;;;;;5085073;27;20543;-59
2022/01/19 15:08:21;;;;;;;10.43;9.40;;;1.60;99.90;;;;;;5075836;27;20579;-58
2022/01/19 15:11:00;;;;;;;10.25;9.27;;;1.70;99.90;;;;;;5084330;28;20664;-59
2022/01/19 15:13:40;;;;;;;11.10;10.18;;;1.70;99.90;;;;;;5147042;27;20888;-59
2022/01/19 15:16:20;;;;;;;9.73;9.05;;;1.70;99.90;;;;;;5105278;27;21432;-59
2022/01/19 15:19:00;;;;;;;11.25;10.25;;;1.70;99.90;;;;;;5085223;27;21103;-59
2022/01/19 15:21:40;;;;;;;9.63;8.82;;;1.60;99.90;;;;;;5138248;27;20593;-59
2022/01/19 15:24:20;;;;;;;8.35;7.55;;;1.50;99.90;;;;;;5104795;27;20662;-59